Enter the Airport ICAO Code

Search by Airport or City

Current Weather

LELN | León Airport

León, Castile and León, Spain

Last Update 28 Minutes Ago

Mostly Cloudy Sky

Temperature of 18 ºC

Moderate Winds from NorthEast

Temperature

18 ºC

Dew Point Temperature

06 ºC

Relative Humidity

45.5 %

Wind Direction

NorthEast (060º, Ranging from 020º to 080º)

Wind Velocity

19 km/h (10 kt)

Gusts

None

Visibility

Greater than 10 Kilometers

Sea Level Pressure

1026 hPa (Hectopascals)

Layers of Clouds

60% to 90% of Sky Covered from 1433 mts (4700 ft) Above Ground Level.

METAR LELN 211300Z 06010KT 020V080 9999 BKN047 18/06 Q1026

Weather Forecast

LELN | León Airport

León, Castile and León, Spain

Forecast valid for the next 20 Hours

From now on it is expected:

Sky with Few Clouds

Moderate Winds from NorthEast

In 9 to 11 hours it is expected the begining of:

Light to Moderate Winds from Variable Directions

Maximum Temperature

20 ºC in 2 Hours

Minimum Temperature

06 ºC in 17 Hours

TAF LELN 210800Z 2109/2209 04010KT 9999 FEW045 TX20/2115Z TN06/2206Z TEMPO 2109/2111 VRB05KT BECMG 2122/2124 VRB05KT